createdAt,value
2023-02-28T00:02:11.570Z,15.90
2023-02-28T00:07:15.034Z,15.90
2023-02-28T00:12:18.431Z,15.90
2023-02-28T00:17:23.450Z,15.90
2023-02-28T00:22:26.894Z,15.90
2023-02-28T00:27:30.294Z,15.90
2023-02-28T00:32:35.445Z,15.90
2023-02-28T00:37:39.544Z,15.90
2023-02-28T00:42:43.003Z,15.90
2023-02-28T00:47:50.752Z,15.90
2023-02-28T00:52:55.247Z,15.90
2023-02-28T00:57:58.670Z,15.90
2023-02-28T01:03:03.794Z,15.90
2023-02-28T01:08:07.584Z,15.90
2023-02-28T01:13:11.077Z,15.90
2023-02-28T01:18:15.884Z,15.90
2023-02-28T01:23:19.275Z,15.90
2023-02-28T01:28:24.199Z,15.90
2023-02-28T01:33:29.493Z,15.90
2023-02-28T01:38:33.540Z,15.90
2023-02-28T01:43:59.577Z,15.90
2023-02-28T01:49:16.428Z,15.90
2023-02-28T01:54:26.445Z,15.90
2023-02-28T01:59:38.571Z,15.90
2023-02-28T02:04:53.979Z,15.90
2023-02-28T02:10:07.609Z,15.90
2023-02-28T02:15:19.181Z,15.90
2023-02-28T02:20:57.276Z,15.90
2023-02-28T02:26:29.433Z,15.90
2023-02-28T02:32:36.980Z,15.90
2023-02-28T02:37:49.169Z,15.90
2023-02-28T02:42:58.588Z,15.90
2023-02-28T02:48:04.551Z,15.80
2023-02-28T02:53:13.298Z,15.80
2023-02-28T02:58:21.305Z,15.80
2023-02-28T03:03:30.071Z,15.90
2023-02-28T03:08:39.939Z,15.80
2023-02-28T03:14:07.124Z,15.90
2023-02-28T03:19:34.448Z,15.80
2023-02-28T03:24:52.153Z,15.80
2023-02-28T03:30:04.273Z,15.80
2023-02-28T03:35:14.674Z,15.80
2023-02-28T03:40:25.956Z,15.80
2023-02-28T03:45:33.261Z,15.80
2023-02-28T03:50:41.602Z,15.80
2023-02-28T03:55:51.815Z,15.80
2023-02-28T04:01:08.818Z,15.80
2023-02-28T04:06:21.133Z,15.80
2023-02-28T04:11:36.845Z,15.80
2023-02-28T04:16:43.699Z,15.80
2023-02-28T04:21:50.729Z,15.80
2023-02-28T04:26:58.560Z,15.80
2023-02-28T04:32:03.850Z,15.80
2023-02-28T04:37:13.740Z,15.80
2023-02-28T04:42:18.871Z,15.80
2023-02-28T04:47:22.260Z,15.80
2023-02-28T04:52:26.138Z,15.80
2023-02-28T04:57:31.044Z,15.70
2023-02-28T05:02:37.212Z,15.80
2023-02-28T05:07:40.647Z,15.70
2023-02-28T05:12:45.362Z,15.70
2023-02-28T05:17:48.788Z,15.70
2023-02-28T05:22:53.625Z,15.70
2023-02-28T05:27:58.396Z,15.70
2023-02-28T05:33:01.841Z,15.70
2023-02-28T05:38:05.241Z,15.70
2023-02-28T05:43:13.333Z,15.70
2023-02-28T05:48:17.786Z,15.70
2023-02-28T05:53:21.166Z,15.70
2023-02-28T05:58:30.152Z,15.70
2023-02-28T06:03:33.587Z,15.70
2023-02-28T06:08:36.947Z,15.70
2023-02-28T06:13:41.825Z,15.70
2023-02-28T06:18:45.196Z,15.70
2023-02-28T06:23:48.598Z,15.70
2023-02-28T06:28:53.373Z,15.70
2023-02-28T06:33:57.443Z,15.70
2023-02-28T06:39:00.843Z,15.70
2023-02-28T06:44:06.667Z,15.70
2023-02-28T06:49:10.703Z,15.70
2023-02-28T06:54:14.555Z,15.70
2023-02-28T06:59:19.491Z,15.60
2023-02-28T07:04:23.211Z,15.70
2023-02-28T07:09:30.976Z,15.60
2023-02-28T07:14:35.729Z,15.70
2023-02-28T07:19:39.122Z,15.70
2023-02-28T07:24:42.519Z,15.70
2023-02-28T07:29:47.743Z,15.60
2023-02-28T07:34:51.160Z,15.60
2023-02-28T07:39:54.550Z,15.70
2023-02-28T07:44:59.939Z,15.60
2023-02-28T07:50:03.615Z,15.60
2023-02-28T07:55:10.210Z,15.60
2023-02-28T08:00:16.685Z,15.60
2023-02-28T08:05:22.140Z,15.70
2023-02-28T08:10:25.964Z,15.60
2023-02-28T08:15:30.797Z,15.60
2023-02-28T08:20:34.199Z,15.60
2023-02-28T08:25:37.568Z,15.60
2023-02-28T08:30:42.697Z,15.60
2023-02-28T08:35:46.148Z,15.70
2023-02-28T08:40:49.562Z,15.60
2023-02-28T08:45:57.762Z,15.60
2023-02-28T08:51:07.553Z,15.60
2023-02-28T08:56:17.044Z,15.60
2023-02-28T09:01:25.003Z,15.60
2023-02-28T09:06:30.000Z,15.60
2023-02-28T09:11:34.154Z,15.70
2023-02-28T09:16:38.946Z,15.60
2023-02-28T09:21:42.523Z,15.60
2023-02-28T09:27:01.563Z,15.60
2023-02-28T09:32:09.373Z,15.60
2023-02-28T09:37:12.827Z,15.60
2023-02-28T09:42:28.675Z,15.60
2023-02-28T09:47:38.774Z,15.60
2023-02-28T09:52:42.636Z,15.60
2023-02-28T09:57:46.353Z,15.70
2023-02-28T10:03:06.931Z,15.70
2023-02-28T10:08:17.327Z,15.70
2023-02-28T10:13:29.537Z,15.70
2023-02-28T10:18:45.901Z,15.70
2023-02-28T10:23:51.636Z,15.70
2023-02-28T10:28:55.826Z,15.60
2023-02-28T10:34:00.611Z,15.70
2023-02-28T10:39:04.134Z,15.70
2023-02-28T10:44:21.710Z,15.60
2023-02-28T10:49:30.094Z,15.60
2023-02-28T10:54:38.824Z,15.70
2023-02-28T10:59:42.274Z,15.70
2023-02-28T11:04:48.299Z,15.60
2023-02-28T11:09:54.795Z,15.60
2023-02-28T11:15:03.430Z,15.60
2023-02-28T11:20:23.177Z,15.70
2023-02-28T11:25:32.932Z,15.70
2023-02-28T11:30:39.748Z,15.60
2023-02-28T11:35:44.970Z,15.70
2023-02-28T11:41:07.796Z,15.70
2023-02-28T11:46:28.295Z,15.70
2023-02-28T11:51:37.547Z,15.70
2023-02-28T11:56:48.511Z,15.70
2023-02-28T12:02:18.340Z,15.70
2023-02-28T12:07:37.038Z,15.70
2023-02-28T12:12:57.610Z,15.70
2023-02-28T12:18:21.390Z,15.70
2023-02-28T12:23:52.670Z,15.70
2023-02-28T12:29:07.039Z,15.70
2023-02-28T12:34:17.831Z,15.70
2023-02-28T12:39:36.470Z,15.70
2023-02-28T12:44:51.055Z,15.70
2023-02-28T12:50:00.608Z,15.70
2023-02-28T12:55:14.070Z,15.70
2023-02-28T13:00:21.521Z,15.70
2023-02-28T13:06:11.761Z,15.70
2023-02-28T13:11:31.700Z,15.70
2023-02-28T13:17:04.397Z,15.70
2023-02-28T13:22:20.777Z,15.70
2023-02-28T13:27:41.610Z,15.70
2023-02-28T13:32:45.058Z,15.70
2023-02-28T13:37:52.790Z,15.70
2023-02-28T13:42:57.632Z,15.70
2023-02-28T13:48:04.304Z,15.70
2023-02-28T13:53:57.400Z,15.80
2023-02-28T13:59:22.878Z,15.80
2023-02-28T14:05:27.987Z,15.80
2023-02-28T14:10:35.156Z,15.80
2023-02-28T14:15:57.427Z,15.80
2023-02-28T14:21:15.154Z,15.90
2023-02-28T14:26:49.994Z,15.90
2023-02-28T14:32:04.978Z,15.90
2023-02-28T14:37:15.836Z,15.90
2023-02-28T14:42:36.490Z,16.00
2023-02-28T14:47:41.399Z,16.00
2023-02-28T14:52:45.994Z,16.00
2023-02-28T14:57:55.624Z,16.00
2023-02-28T15:03:03.357Z,16.10
2023-02-28T15:08:14.829Z,16.10
2023-02-28T15:13:19.177Z,16.10
2023-02-28T15:18:34.926Z,16.20
2023-02-28T15:23:39.534Z,16.20
2023-02-28T15:28:43.226Z,16.20
2023-02-28T15:33:58.443Z,16.20
2023-02-28T15:39:14.486Z,16.20
2023-02-28T15:44:37.908Z,16.30
2023-02-28T15:49:51.139Z,16.30
2023-02-28T15:54:55.147Z,16.30
2023-02-28T16:00:02.161Z,16.40
2023-02-28T16:05:31.512Z,16.30
2023-02-28T16:10:35.006Z,16.40
2023-02-28T16:15:45.157Z,16.30
2023-02-28T16:20:50.012Z,16.40
2023-02-28T16:25:53.473Z,16.40
2023-02-28T16:30:57.044Z,16.40
2023-02-28T16:36:02.948Z,16.40
2023-02-28T16:41:08.122Z,16.30
2023-02-28T16:46:13.675Z,16.30
2023-02-28T16:51:19.271Z,16.30
2023-02-28T16:56:25.327Z,16.30
2023-02-28T17:01:30.214Z,16.20
2023-02-28T17:06:35.346Z,16.20
2023-02-28T17:11:39.681Z,16.20
2023-02-28T17:16:44.080Z,16.20
2023-02-28T17:21:49.128Z,16.20
2023-02-28T17:26:52.516Z,16.20
2023-02-28T17:31:58.862Z,16.10
2023-02-28T17:37:05.314Z,16.10
2023-02-28T17:42:09.029Z,16.10
2023-02-28T17:47:14.752Z,16.10
2023-02-28T17:52:19.513Z,16.10
2023-02-28T17:57:23.196Z,16.10
2023-02-28T18:02:28.302Z,16.00
2023-02-28T18:07:33.610Z,16.00
2023-02-28T18:12:37.012Z,16.00
2023-02-28T18:17:40.420Z,16.00
2023-02-28T18:22:45.437Z,16.00
2023-02-28T18:27:58.226Z,16.00
2023-02-28T18:33:03.365Z,16.00
2023-02-28T18:38:14.921Z,16.00
2023-02-28T18:43:18.349Z,16.00
2023-02-28T18:48:23.295Z,15.90
2023-02-28T18:53:28.773Z,15.90
2023-02-28T18:58:33.426Z,15.90
2023-02-28T19:03:36.808Z,15.90
2023-02-28T19:08:42.099Z,15.90
2023-02-28T19:13:46.838Z,15.90
2023-02-28T19:18:50.315Z,15.90
2023-02-28T19:23:55.300Z,15.90
2023-02-28T19:28:58.709Z,15.90
2023-02-28T19:34:02.656Z,15.90
2023-02-28T19:39:08.497Z,15.90
2023-02-28T19:44:11.922Z,15.90
2023-02-28T19:49:15.339Z,15.90
2023-02-28T19:54:20.143Z,15.90
2023-02-28T19:59:35.667Z,15.90
2023-02-28T20:04:42.208Z,15.90
2023-02-28T20:09:47.255Z,15.90
2023-02-28T20:14:50.985Z,15.80
2023-02-28T20:19:54.398Z,15.80
2023-02-28T20:24:59.163Z,15.80
2023-02-28T20:30:02.765Z,15.80
2023-02-28T20:35:08.647Z,15.80
2023-02-28T20:40:15.531Z,15.80
2023-02-28T20:45:19.167Z,15.80
2023-02-28T20:50:22.588Z,15.80
2023-02-28T20:55:27.457Z,15.80
2023-02-28T21:00:30.904Z,15.80
2023-02-28T21:05:34.306Z,15.80
2023-02-28T21:10:40.142Z,15.80
2023-02-28T21:15:43.550Z,15.80
2023-02-28T21:20:46.942Z,15.80
2023-02-28T21:25:51.736Z,15.80
2023-02-28T21:30:55.261Z,15.80
2023-02-28T21:36:04.188Z,15.80
2023-02-28T21:41:13.266Z,15.80
2023-02-28T21:46:20.310Z,15.80
2023-02-28T21:51:26.417Z,15.80
2023-02-28T21:56:34.063Z,15.80
2023-02-28T22:01:40.336Z,15.80
2023-02-28T22:06:46.508Z,15.80
2023-02-28T22:11:51.783Z,15.80
2023-02-28T22:16:56.950Z,15.80
2023-02-28T22:22:00.602Z,15.80
2023-02-28T22:27:05.459Z,15.80
2023-02-28T22:32:11.385Z,15.80
2023-02-28T22:37:14.869Z,15.70
2023-02-28T22:42:19.643Z,15.80
2023-02-28T22:47:26.462Z,15.80
2023-02-28T22:52:29.876Z,15.80
2023-02-28T22:57:34.653Z,15.80
2023-02-28T23:02:38.057Z,15.80
2023-02-28T23:07:43.756Z,15.80
2023-02-28T23:12:53.741Z,15.70
2023-02-28T23:17:57.513Z,15.70
2023-02-28T23:23:00.911Z,15.70
2023-02-28T23:28:06.574Z,15.70
2023-02-28T23:33:10.479Z,15.70
2023-02-28T23:38:13.860Z,15.70
2023-02-28T23:43:19.568Z,15.70
2023-02-28T23:48:23.221Z,15.70
2023-02-28T23:53:26.882Z,15.70
2023-02-28T23:58:32.456Z,15.70
